createdAt,value
2019-05-02T00:01:43.034Z,100176.91
2019-05-02T00:04:12.520Z,100179.97
2019-05-02T00:06:37.967Z,100170.86
2019-05-02T00:09:03.984Z,100177.55
2019-05-02T00:11:28.719Z,100173.84
2019-05-02T00:13:53.522Z,100170.77
2019-05-02T00:16:18.852Z,100169.39
2019-05-02T00:18:43.580Z,100164.89
2019-05-02T00:21:09.098Z,100164.43
2019-05-02T00:23:33.691Z,100117.42
2019-05-02T00:25:58.197Z,100169.90
2019-05-02T00:28:22.731Z,100164.02
2019-05-02T00:30:47.261Z,100160.61
2019-05-02T00:33:11.723Z,100155.56
2019-05-02T00:35:36.183Z,100164.73
2019-05-02T00:38:02.388Z,100151.55
2019-05-02T00:40:27.766Z,100154.34
2019-05-02T00:42:53.245Z,100153.59
2019-05-02T00:45:23.431Z,100151.59
2019-05-02T00:47:54.843Z,100149.69
2019-05-02T00:50:19.685Z,100143.40
2019-05-02T00:52:44.285Z,100138.75
2019-05-02T00:55:08.994Z,100150.14
2019-05-02T00:57:33.530Z,100136.41
2019-05-02T00:59:58.104Z,100131.95
2019-05-02T01:02:26.743Z,100135.40
2019-05-02T01:04:51.302Z,100138.25
2019-05-02T01:07:20.344Z,100135.44
2019-05-02T01:09:46.768Z,100134.78
2019-05-02T01:12:09.900Z,100136.41
2019-05-02T01:14:34.590Z,100126.36
2019-05-02T01:16:59.114Z,100133.55
2019-05-02T01:19:23.657Z,100132.52
2019-05-02T01:21:48.161Z,100135.56
2019-05-02T01:24:12.628Z,100122.28
2019-05-02T01:26:38.883Z,100124.56
2019-05-02T01:29:17.021Z,100124.25
2019-05-02T01:31:54.721Z,100119.73
2019-05-02T01:34:19.724Z,100118.11
2019-05-02T01:37:03.842Z,100122.00
2019-05-02T01:39:28.492Z,100119.41
2019-05-02T01:41:52.953Z,100113.66
2019-05-02T01:44:17.426Z,100107.36
2019-05-02T01:46:41.979Z,100114.54
2019-05-02T01:49:06.887Z,100117.09
2019-05-02T01:51:31.417Z,100112.52
2019-05-02T01:53:55.950Z,100107.83
2019-05-02T01:56:20.555Z,100110.39
2019-05-02T01:58:45.018Z,100114.15
2019-05-02T02:01:09.631Z,100108.44
2019-05-02T02:03:34.248Z,100109.66
2019-05-02T02:06:02.776Z,100106.86
2019-05-02T02:08:27.240Z,100096.27
2019-05-02T02:10:56.093Z,100098.63
2019-05-02T02:13:17.484Z,100096.12
2019-05-02T02:15:42.021Z,100103.59
2019-05-02T02:18:06.622Z,100092.56
2019-05-02T02:20:45.134Z,100087.05
2019-05-02T02:23:25.833Z,100085.38
2019-05-02T02:25:52.087Z,100086.55
2019-05-02T02:28:16.533Z,100079.16
2019-05-02T02:30:41.081Z,100080.31
2019-05-02T02:33:07.446Z,100078.00
2019-05-02T02:35:31.960Z,100076.94
2019-05-02T02:37:56.439Z,100080.95
2019-05-02T02:40:20.972Z,100065.66
2019-05-02T02:42:45.532Z,100075.05
2019-05-02T02:45:18.527Z,100068.35
2019-05-02T02:47:39.626Z,100066.12
2019-05-02T02:50:05.368Z,100068.41
2019-05-02T02:52:30.155Z,100064.28
2019-05-02T02:54:54.692Z,100059.27
2019-05-02T02:57:25.843Z,100058.55
2019-05-02T02:59:45.321Z,100053.37
2019-05-02T03:02:12.045Z,100053.70
2019-05-02T03:04:36.005Z,100060.34
2019-05-02T03:07:00.605Z,100057.51
2019-05-02T03:09:26.472Z,100056.14
2019-05-02T03:12:09.469Z,100048.70
2019-05-02T03:14:40.927Z,100042.74
2019-05-02T03:17:02.127Z,100040.75
2019-05-02T03:19:26.758Z,100039.38
2019-05-02T03:22:00.312Z,100035.73
2019-05-02T03:24:20.522Z,100040.42
2019-05-02T03:26:48.751Z,100029.78
2019-05-02T03:29:11.542Z,100026.94
2019-05-02T03:31:37.163Z,100030.03
2019-05-02T03:34:01.882Z,100028.13
2019-05-02T03:36:30.421Z,100016.20
2019-05-02T03:38:53.358Z,100019.83
2019-05-02T03:41:20.897Z,100005.47
2019-05-02T03:43:44.506Z,100011.66
2019-05-02T03:46:13.760Z,100013.39
2019-05-02T03:48:35.327Z,100003.67
2019-05-02T03:50:59.942Z,99981.55
2019-05-02T03:53:25.967Z,100000.92
2019-05-02T03:55:50.854Z,100003.88
2019-05-02T03:58:17.110Z,99997.84
2019-05-02T04:00:41.884Z,99994.36
2019-05-02T04:03:06.429Z,99991.38
2019-05-02T04:05:33.771Z,99999.41
2019-05-02T04:07:57.387Z,100000.08
2019-05-02T04:10:44.504Z,99992.68
2019-05-02T04:13:09.803Z,99998.63
2019-05-02T04:15:37.526Z,99994.86
2019-05-02T04:18:01.914Z,99990.05
2019-05-02T04:20:26.690Z,99992.81
2019-05-02T04:22:51.295Z,99991.30
2019-05-02T04:25:15.764Z,99990.30
2019-05-02T04:27:41.583Z,99984.05
2019-05-02T04:30:11.178Z,99990.36
2019-05-02T04:32:33.351Z,99989.84
2019-05-02T04:34:58.145Z,99981.52
2019-05-02T04:37:22.740Z,99990.50
2019-05-02T04:39:49.161Z,99990.34
2019-05-02T04:42:19.651Z,99993.91
2019-05-02T04:44:47.884Z,99987.98
2019-05-02T04:47:17.442Z,99994.30
2019-05-02T04:49:35.633Z,99989.58
2019-05-02T04:52:06.105Z,99989.09
2019-05-02T04:54:31.313Z,99982.05
2019-05-02T04:56:55.107Z,99983.95
2019-05-02T04:59:21.864Z,99983.53
2019-05-02T05:01:52.769Z,99976.33
2019-05-02T05:04:09.300Z,99982.19
2019-05-02T05:06:33.793Z,99971.17
2019-05-02T05:08:58.594Z,99978.44
2019-05-02T05:11:24.940Z,99981.42
2019-05-02T05:13:52.426Z,99984.80
2019-05-02T05:16:15.887Z,99978.40
2019-05-02T05:18:44.015Z,99985.87
2019-05-02T05:21:10.569Z,99977.99
2019-05-02T05:23:35.758Z,99979.77
2019-05-02T05:26:03.522Z,99980.78
2019-05-02T05:28:27.278Z,99981.27
2019-05-02T05:30:52.164Z,99981.73
2019-05-02T05:33:18.336Z,99975.73
2019-05-02T05:35:43.346Z,99977.19
2019-05-02T05:38:09.254Z,99979.16
2019-05-02T05:40:34.058Z,99983.80
2019-05-02T05:43:02.139Z,99981.72
2019-05-02T05:45:24.991Z,99976.88
2019-05-02T05:47:52.309Z,99977.95
2019-05-02T05:50:17.583Z,99977.38
2019-05-02T05:52:42.576Z,99946.76
2019-05-02T05:55:07.890Z,99984.61
2019-05-02T05:57:32.472Z,99987.20
2019-05-02T05:59:58.411Z,99948.30
2019-05-02T06:02:23.144Z,99983.94
2019-05-02T06:04:50.120Z,99942.36
2019-05-02T06:07:13.828Z,99982.79
2019-05-02T06:09:38.290Z,99979.55
2019-05-02T06:12:02.756Z,99981.80
2019-05-02T06:14:27.243Z,99972.92
2019-05-02T06:16:53.187Z,99976.42
2019-05-02T06:19:19.068Z,99974.20
2019-05-02T06:21:45.085Z,99979.87
2019-05-02T06:24:10.963Z,99984.77
2019-05-02T06:26:35.785Z,99977.09
2019-05-02T06:29:00.278Z,99987.20
2019-05-02T06:31:24.810Z,99985.41
2019-05-02T06:33:49.352Z,99977.20
2019-05-02T06:36:13.893Z,99973.75
2019-05-02T06:38:38.433Z,99979.55
2019-05-02T06:41:03.030Z,99973.62
2019-05-02T06:43:27.570Z,99971.41
2019-05-02T06:45:52.033Z,99975.52
2019-05-02T06:48:17.733Z,99921.16
2019-05-02T06:50:42.702Z,99971.27
2019-05-02T06:53:09.755Z,99968.17
2019-05-02T06:55:36.504Z,99967.48
2019-05-02T06:58:02.902Z,99968.78
2019-05-02T07:00:35.581Z,99965.14
2019-05-02T07:02:51.976Z,99960.17
2019-05-02T07:05:16.445Z,99960.11
2019-05-02T07:07:40.949Z,99969.52
2019-05-02T07:10:07.650Z,99964.34
2019-05-02T07:12:32.167Z,99959.56
2019-05-02T07:15:01.523Z,99967.81
2019-05-02T07:17:26.644Z,99963.81
2019-05-02T07:19:52.501Z,99962.61
2019-05-02T07:22:17.138Z,99963.98
2019-05-02T07:24:41.681Z,99957.84
2019-05-02T07:27:06.311Z,99957.28
2019-05-02T07:29:30.784Z,99962.45
2019-05-02T07:31:55.370Z,99962.72
2019-05-02T07:34:19.861Z,99960.33
2019-05-02T07:36:44.333Z,99952.31
2019-05-02T07:39:10.819Z,99954.65
2019-05-02T07:41:37.210Z,99937.11
2019-05-02T07:44:04.335Z,99935.58
2019-05-02T07:46:27.838Z,99936.05
2019-05-02T07:48:54.677Z,99933.36
2019-05-02T07:51:21.321Z,99925.23
2019-05-02T07:53:48.539Z,99928.70
2019-05-02T07:56:12.402Z,99936.50
2019-05-02T07:58:38.515Z,99929.98
2019-05-02T08:01:03.452Z,99932.40
2019-05-02T08:03:33.579Z,99929.52
2019-05-02T08:05:58.669Z,99936.20
2019-05-02T08:08:25.105Z,99928.29
2019-05-02T08:10:53.369Z,99930.36
2019-05-02T08:13:17.467Z,99930.08
2019-05-02T08:15:45.563Z,99932.06
2019-05-02T08:18:08.311Z,99923.65
2019-05-02T08:20:32.840Z,99926.62
2019-05-02T08:22:57.315Z,99928.97
2019-05-02T08:25:21.879Z,99935.07
2019-05-02T08:27:47.980Z,99877.02
2019-05-02T08:30:15.516Z,99920.64
2019-05-02T08:32:40.123Z,99927.75
2019-05-02T08:35:06.932Z,99916.22
2019-05-02T08:37:35.265Z,99929.20
2019-05-02T08:39:57.644Z,99929.85
2019-05-02T08:42:22.109Z,99929.83
2019-05-02T08:44:51.239Z,99931.02
2019-05-02T08:47:19.159Z,99933.69
2019-05-02T08:49:38.979Z,99899.91
2019-05-02T08:52:03.597Z,99944.17
2019-05-02T08:54:32.691Z,99946.80
2019-05-02T08:56:59.161Z,99938.95
2019-05-02T08:59:24.440Z,99945.32
2019-05-02T09:01:49.500Z,99938.62
2019-05-02T09:04:12.771Z,99948.73
2019-05-02T09:06:37.254Z,99943.66
2019-05-02T09:09:01.791Z,99941.73
2019-05-02T09:11:26.325Z,99943.23
2019-05-02T09:13:52.594Z,99939.89
2019-05-02T09:16:23.650Z,99950.82
2019-05-02T09:18:50.617Z,99949.99
2019-05-02T09:21:09.636Z,99952.03
2019-05-02T09:23:37.007Z,99954.38
2019-05-02T09:26:02.429Z,99948.28
2019-05-02T09:28:26.569Z,99957.66
2019-05-02T09:30:52.417Z,99954.86
2019-05-02T09:33:16.953Z,99957.22
2019-05-02T09:35:42.189Z,99952.13
2019-05-02T09:38:06.829Z,99954.24
2019-05-02T09:40:31.927Z,99954.23
2019-05-02T09:43:01.766Z,99939.63
2019-05-02T09:45:27.919Z,99947.68
2019-05-02T09:47:57.329Z,99945.30
2019-05-02T09:50:20.619Z,99950.84
2019-05-02T09:52:44.266Z,99951.17
2019-05-02T09:55:11.998Z,99945.02
2019-05-02T09:57:36.412Z,99946.47
2019-05-02T10:00:02.162Z,99944.48
2019-05-02T10:02:26.856Z,99945.15
2019-05-02T10:04:52.372Z,99940.23
2019-05-02T10:07:17.082Z,99940.45
2019-05-02T10:09:42.440Z,99939.81
2019-05-02T10:12:07.081Z,99935.65
2019-05-02T10:14:33.109Z,99934.56
2019-05-02T10:17:02.160Z,99935.91
2019-05-02T10:19:25.995Z,99928.19
2019-05-02T10:21:54.359Z,99934.98
2019-05-02T10:24:16.565Z,99928.95
2019-05-02T10:26:41.914Z,99929.76
2019-05-02T10:29:06.606Z,99936.52
2019-05-02T10:31:35.741Z,99927.58
2019-05-02T10:33:57.383Z,99925.18
2019-05-02T10:36:24.039Z,99925.77
2019-05-02T10:38:49.076Z,99925.04
2019-05-02T10:41:14.447Z,99924.30
2019-05-02T10:43:38.902Z,99922.20
2019-05-02T10:46:12.551Z,99926.89
2019-05-02T10:48:38.787Z,99920.28
2019-05-02T10:51:08.010Z,99917.22
2019-05-02T10:53:32.573Z,99916.89
2019-05-02T10:55:57.129Z,99902.13
2019-05-02T10:58:26.189Z,99890.39
2019-05-02T11:00:47.999Z,99898.52
2019-05-02T11:03:22.408Z,99902.61
2019-05-02T11:05:58.076Z,99901.94
2019-05-02T11:08:22.456Z,99883.45
2019-05-02T11:10:47.256Z,99902.41
2019-05-02T11:13:16.051Z,99902.47
2019-05-02T11:15:58.426Z,99905.51
2019-05-02T11:18:39.433Z,99896.69
2019-05-02T11:20:52.485Z,99893.80
2019-05-02T11:23:17.078Z,99887.28
2019-05-02T11:25:42.160Z,99883.17
2019-05-02T11:28:07.305Z,99892.62
2019-05-02T11:30:32.087Z,99883.38
2019-05-02T11:32:56.564Z,99892.81
2019-05-02T11:35:22.404Z,99874.23
2019-05-02T11:37:47.119Z,99878.52
2019-05-02T11:40:12.891Z,99866.99
2019-05-02T11:42:37.569Z,99872.00
2019-05-02T11:45:02.801Z,99862.61
2019-05-02T11:47:27.332Z,99860.47
2019-05-02T11:49:55.732Z,99854.25
2019-05-02T11:52:18.044Z,99855.29
2019-05-02T11:54:44.689Z,99856.66
2019-05-02T11:57:08.766Z,99842.64
2019-05-02T11:59:33.254Z,99848.80
2019-05-02T12:02:09.469Z,99842.64
2019-05-02T12:04:34.589Z,99845.58
2019-05-02T12:07:01.560Z,99837.17
2019-05-02T12:09:25.289Z,99852.07
2019-05-02T12:11:52.760Z,99834.45
2019-05-02T12:14:16.037Z,99821.70
2019-05-02T12:16:40.633Z,99835.27
2019-05-02T12:19:11.419Z,99827.20
2019-05-02T12:21:32.466Z,99824.84
2019-05-02T12:23:57.193Z,99819.63
2019-05-02T12:26:22.167Z,99825.05
2019-05-02T12:28:46.749Z,99827.84
2019-05-02T12:31:16.705Z,99819.28
2019-05-02T12:33:42.627Z,99810.11
2019-05-02T12:36:11.889Z,99807.80
2019-05-02T12:38:36.280Z,99802.42
2019-05-02T12:41:02.570Z,99800.69
2019-05-02T12:43:27.121Z,99805.63
2019-05-02T12:45:52.790Z,99781.52
2019-05-02T12:48:22.039Z,99799.33
2019-05-02T12:50:46.610Z,99797.16
2019-05-02T12:53:12.598Z,99792.09
2019-05-02T12:55:37.342Z,99787.73
2019-05-02T12:58:03.120Z,99789.56
2019-05-02T13:00:27.713Z,99788.66
2019-05-02T13:02:56.717Z,99787.14
2019-05-02T13:05:22.249Z,99783.23
2019-05-02T13:07:50.805Z,99792.08
2019-05-02T13:10:15.388Z,99791.94
2019-05-02T13:12:41.914Z,99783.03
2019-05-02T13:15:07.850Z,99779.73
2019-05-02T13:17:35.708Z,99772.80
2019-05-02T13:20:03.133Z,99771.22
2019-05-02T13:22:29.544Z,99767.29
2019-05-02T13:24:56.383Z,99770.33
2019-05-02T13:27:22.792Z,99759.00
2019-05-02T13:29:48.417Z,99764.86
2019-05-02T13:32:21.759Z,99725.52
2019-05-02T13:34:57.300Z,99772.94
2019-05-02T13:37:22.907Z,99760.02
2019-05-02T13:40:05.347Z,99757.31
2019-05-02T13:42:29.960Z,99762.03
2019-05-02T13:44:56.217Z,99762.22
2019-05-02T13:47:25.256Z,99757.17
2019-05-02T13:49:54.090Z,99752.16
2019-05-02T13:52:16.145Z,99759.58
2019-05-02T13:54:42.575Z,99750.27
2019-05-02T13:57:07.719Z,99747.14
2019-05-02T13:59:33.746Z,99744.21
2019-05-02T14:02:02.775Z,99740.70
2019-05-02T14:04:27.416Z,99749.80
2019-05-02T14:06:52.853Z,99752.62
2019-05-02T14:09:22.538Z,99758.80
2019-05-02T14:12:07.198Z,99752.27
2019-05-02T14:14:32.629Z,99756.69
2019-05-02T14:16:57.200Z,99750.58
2019-05-02T14:19:22.261Z,99747.59
2019-05-02T14:21:47.000Z,99750.80
2019-05-02T14:24:11.910Z,99744.23
2019-05-02T14:26:36.469Z,99751.95
2019-05-02T14:29:02.558Z,99751.36
2019-05-02T14:31:27.182Z,99757.73
2019-05-02T14:34:09.663Z,99759.11
2019-05-02T14:36:34.145Z,99758.47
2019-05-02T14:38:58.612Z,99761.47
2019-05-02T14:41:24.841Z,99756.98
2019-05-02T14:43:53.220Z,99755.89
2019-05-02T14:46:17.983Z,99752.21
2019-05-02T14:48:45.291Z,99757.61
2019-05-02T14:51:11.874Z,99754.51
2019-05-02T14:53:36.967Z,99740.91
2019-05-02T14:56:06.145Z,99742.13
2019-05-02T14:58:29.472Z,99740.66
2019-05-02T15:00:55.843Z,99742.83
2019-05-02T15:03:24.520Z,99727.83
2019-05-02T15:05:46.506Z,99731.98
2019-05-02T15:08:11.857Z,99733.54
2019-05-02T15:10:49.391Z,99735.33
2019-05-02T15:13:03.913Z,99737.13
2019-05-02T15:15:33.983Z,99732.22
2019-05-02T15:17:54.772Z,99726.34
2019-05-02T15:20:19.415Z,99715.61
2019-05-02T15:22:43.958Z,99717.99
2019-05-02T15:25:13.645Z,99724.59
2019-05-02T15:27:41.845Z,99718.74
2019-05-02T15:30:06.916Z,99713.27
2019-05-02T15:32:46.396Z,99715.08
2019-05-02T15:35:23.111Z,99681.13
2019-05-02T15:37:44.294Z,99708.51
2019-05-02T15:42:37.468Z,99701.21
2019-05-02T15:45:05.640Z,99699.28
2019-05-02T15:47:28.358Z,99673.84
2019-05-02T15:49:52.947Z,99685.89
2019-05-02T15:52:24.250Z,99682.92
2019-05-02T15:54:45.789Z,99686.09
2019-05-02T15:57:10.266Z,99690.07
2019-05-02T15:59:42.433Z,99687.64
2019-05-02T16:02:03.096Z,99680.05
2019-05-02T16:04:29.233Z,99685.95
2019-05-02T16:06:53.795Z,99684.72
2019-05-02T16:09:18.275Z,99642.30
2019-05-02T16:11:43.454Z,99688.95
2019-05-02T16:14:07.983Z,99681.09
2019-05-02T16:16:36.622Z,99684.86
2019-05-02T16:18:58.686Z,99677.78
2019-05-02T16:21:30.128Z,99677.24
2019-05-02T16:24:14.785Z,99669.69
2019-05-02T16:26:42.760Z,99674.35
2019-05-02T16:29:05.134Z,99678.34
2019-05-02T16:31:31.618Z,99678.02
2019-05-02T16:33:57.476Z,99676.25
2019-05-02T16:36:26.011Z,99675.66
2019-05-02T16:38:48.400Z,99668.45
2019-05-02T16:41:12.938Z,99673.36
2019-05-02T16:43:37.420Z,99667.38
2019-05-02T16:46:02.000Z,99670.92
2019-05-02T16:48:30.564Z,99675.42
2019-05-02T16:50:52.690Z,99672.33
2019-05-02T16:53:21.877Z,99663.20
2019-05-02T16:55:43.716Z,99623.33
2019-05-02T16:58:08.182Z,99664.80
2019-05-02T17:00:36.873Z,99631.23
2019-05-02T17:02:58.960Z,99658.80
2019-05-02T17:05:23.583Z,99656.30
2019-05-02T17:07:53.010Z,99647.23
2019-05-02T17:10:19.383Z,99656.18
2019-05-02T17:12:47.323Z,99657.61
2019-05-02T17:15:31.425Z,99655.41
2019-05-02T17:17:54.500Z,99655.30
2019-05-02T17:20:19.089Z,99654.17
2019-05-02T17:22:44.488Z,99653.91
2019-05-02T17:25:10.144Z,99649.89
2019-05-02T17:27:34.762Z,99651.23
2019-05-02T17:30:00.688Z,99648.53
2019-05-02T17:32:28.837Z,99645.23
2019-05-02T17:34:52.606Z,99646.54
2019-05-02T17:37:17.134Z,99645.69
2019-05-02T17:39:42.759Z,99642.67
2019-05-02T17:42:07.842Z,99646.98
2019-05-02T17:44:32.320Z,99644.06
2019-05-02T17:46:58.121Z,99638.33
2019-05-02T17:49:30.435Z,99631.88
2019-05-02T17:52:11.225Z,99639.83
2019-05-02T17:54:33.481Z,99651.66
2019-05-02T17:56:59.177Z,99648.77
2019-05-02T17:59:28.216Z,99622.02
2019-05-02T18:01:50.035Z,99659.66
2019-05-02T18:04:16.459Z,99654.77
2019-05-02T18:06:41.718Z,99657.54
2019-05-02T18:09:07.374Z,99673.51
2019-05-02T18:11:36.428Z,99667.78
2019-05-02T18:13:58.256Z,99668.27
2019-05-02T18:16:22.744Z,99670.39
2019-05-02T18:18:47.292Z,99676.44
2019-05-02T18:21:12.762Z,99631.41
2019-05-02T18:23:37.466Z,99698.19
2019-05-02T18:26:05.020Z,99706.41
2019-05-02T18:28:28.226Z,99699.74
2019-05-02T18:30:57.047Z,99716.21
2019-05-02T18:33:18.870Z,99720.38
2019-05-02T18:35:46.898Z,99719.64
2019-05-02T18:38:09.713Z,99723.70
2019-05-02T18:40:34.404Z,99707.93
2019-05-02T18:43:02.194Z,99711.37
2019-05-02T18:45:28.480Z,99718.56
2019-05-02T18:47:53.970Z,99701.91
2019-05-02T18:50:31.969Z,99706.86
2019-05-02T18:52:56.775Z,99704.19
2019-05-02T18:55:23.162Z,99707.62
2019-05-02T18:57:47.536Z,99708.01
2019-05-02T19:00:12.368Z,99699.11
2019-05-02T19:02:36.903Z,99717.16
2019-05-02T19:05:01.998Z,99717.01
2019-05-02T19:07:33.069Z,99715.84
2019-05-02T19:09:53.970Z,99715.00
2019-05-02T19:12:22.259Z,99722.49
2019-05-02T19:14:44.923Z,99723.21
2019-05-02T19:17:09.399Z,99725.08
2019-05-02T19:19:36.832Z,99729.44
2019-05-02T19:22:00.122Z,99730.14
2019-05-02T19:24:27.524Z,99725.79
2019-05-02T19:26:53.264Z,99734.57
2019-05-02T19:29:24.934Z,99747.74
2019-05-02T19:31:49.484Z,99741.15
2019-05-02T19:34:16.970Z,99752.72
2019-05-02T19:36:41.683Z,99678.12
2019-05-02T19:39:09.929Z,99758.31
2019-05-02T19:41:39.031Z,99756.39
2019-05-02T19:44:02.308Z,99763.30
2019-05-02T19:46:34.516Z,99758.98
2019-05-02T19:48:53.419Z,99762.20
2019-05-02T19:51:18.863Z,99771.17
2019-05-02T19:53:44.193Z,99771.87
2019-05-02T19:56:08.811Z,99778.91
2019-05-02T19:58:36.877Z,99777.73
2019-05-02T20:01:02.054Z,99776.84
2019-05-02T20:03:26.345Z,99790.13
2019-05-02T20:05:51.890Z,99796.03
2019-05-02T20:08:21.486Z,99781.56
2019-05-02T20:10:42.831Z,99778.47
2019-05-02T20:13:07.437Z,99774.25
2019-05-02T20:15:33.633Z,99772.72
2019-05-02T20:18:00.526Z,99775.34
2019-05-02T20:20:43.565Z,99786.29
2019-05-02T20:23:15.520Z,99784.50
2019-05-02T20:25:38.958Z,99783.56
2019-05-02T20:28:01.983Z,99781.41
2019-05-02T20:30:26.495Z,99784.67
2019-05-02T20:32:51.801Z,99793.42
2019-05-02T20:35:16.408Z,99793.09
2019-05-02T20:37:41.966Z,99791.65
2019-05-02T20:40:07.370Z,99797.25
2019-05-02T20:42:32.233Z,99805.19
2019-05-02T20:44:56.844Z,99805.81
2019-05-02T20:47:23.818Z,99804.71
2019-05-02T20:49:48.447Z,99800.41
2019-05-02T20:52:13.098Z,99805.66
2019-05-02T20:54:37.658Z,99808.06
2019-05-02T20:57:02.570Z,99807.24
2019-05-02T20:59:27.288Z,99804.55
2019-05-02T21:01:52.376Z,99802.84
2019-05-02T21:04:17.029Z,99805.03
2019-05-02T21:06:44.078Z,99803.80
2019-05-02T21:09:11.497Z,99806.14
2019-05-02T21:11:36.234Z,99811.78
2019-05-02T21:14:01.670Z,99809.56
2019-05-02T21:16:26.464Z,99816.56
2019-05-02T21:18:50.942Z,99814.21
2019-05-02T21:21:15.527Z,99813.80
2019-05-02T21:23:44.829Z,99818.45
2019-05-02T21:26:06.343Z,99813.56
2019-05-02T21:28:32.165Z,99815.88
2019-05-02T21:30:56.822Z,99824.61
2019-05-02T21:33:36.665Z,99827.33
2019-05-02T21:36:01.847Z,99817.42
2019-05-02T21:38:26.324Z,99822.14
2019-05-02T21:40:52.557Z,99830.94
2019-05-02T21:43:17.251Z,99830.83
2019-05-02T21:45:42.166Z,99832.36
2019-05-02T21:48:06.701Z,99835.45
2019-05-02T21:50:32.854Z,99840.11
2019-05-02T21:53:15.501Z,99845.97
2019-05-02T21:55:44.479Z,99839.14
2019-05-02T21:58:09.096Z,99841.36
2019-05-02T22:00:35.392Z,99839.86
2019-05-02T22:03:01.545Z,99848.23
2019-05-02T22:05:26.059Z,99845.77
2019-05-02T22:07:52.295Z,99845.06
2019-05-02T22:10:16.931Z,99850.36
2019-05-02T22:12:42.222Z,99848.22
2019-05-02T22:15:07.201Z,99845.27
2019-05-02T22:17:32.216Z,99848.53
2019-05-02T22:19:56.959Z,99852.44
2019-05-02T22:22:22.829Z,99849.42
2019-05-02T22:24:47.676Z,99848.39
2019-05-02T22:27:12.485Z,99857.34
2019-05-02T22:29:36.996Z,99855.47
2019-05-02T22:32:02.962Z,99859.89
2019-05-02T22:34:27.825Z,99863.75
2019-05-02T22:36:54.299Z,99861.45
2019-05-02T22:39:23.185Z,99865.13
2019-05-02T22:41:47.652Z,99858.18
2019-05-02T22:44:12.537Z,99860.89
2019-05-02T22:46:43.207Z,99865.67
2019-05-02T22:49:07.449Z,99864.88
2019-05-02T22:51:32.091Z,99865.07
2019-05-02T22:53:56.571Z,99868.94
2019-05-02T22:56:22.243Z,99866.36
2019-05-02T22:58:46.706Z,99869.13
2019-05-02T23:01:11.271Z,99868.44
2019-05-02T23:03:35.841Z,99873.56
2019-05-02T23:06:01.775Z,99869.66
2019-05-02T23:08:26.339Z,99874.90
2019-05-02T23:10:51.950Z,99875.19
2019-05-02T23:13:16.646Z,99872.89
2019-05-02T23:15:42.692Z,99875.52
2019-05-02T23:18:07.319Z,99875.66
2019-05-02T23:20:32.939Z,99875.66
2019-05-02T23:22:57.806Z,99878.07
2019-05-02T23:25:23.904Z,99884.12
2019-05-02T23:27:56.075Z,99890.13
2019-05-02T23:30:22.607Z,99893.73
2019-05-02T23:32:47.151Z,99889.47
2019-05-02T23:35:11.777Z,99901.11
2019-05-02T23:37:36.351Z,99893.50
2019-05-02T23:40:02.014Z,99893.17
2019-05-02T23:42:26.580Z,99893.56
2019-05-02T23:44:51.929Z,99896.64
2019-05-02T23:47:16.552Z,99892.34
2019-05-02T23:49:42.713Z,99890.59
2019-05-02T23:52:07.382Z,99888.35
2019-05-02T23:54:32.496Z,99896.91
2019-05-02T23:56:57.644Z,99894.03
2019-05-02T23:59:22.471Z,99892.11
